Time;durP1;ratioP1;P1;durP2;ratioP2;P2;SDS_P1;SDS_P2;PMS_P1;PMS_P2;Temp;Humidity;BMP_temperature;BMP_pressure;BME280_temperature;BME280_humidity;BME280_pressure;Samples;Min_cycle;Max_cycle;Signal;HPM_P1;HPM_P2
2022/01/01 00:02:02;;;;;;;82.22;34.60;;;2.80;91.70;;;;;;5056303;28;20029;-38
2022/01/01 00:04:27;;;;;;;82.45;34.38;;;2.80;91.70;;;;;;5056285;28;20443;-36
2022/01/01 00:06:53;;;;;;;86.03;34.47;;;2.90;91.70;;;;;;5056240;28;20035;-39
2022/01/01 00:09:19;;;;;;;83.53;34.50;;;2.90;91.70;;;;;;5056190;28;20321;-36
2022/01/01 00:11:44;;;;;;;75.18;31.48;;;2.90;91.70;;;;;;5055966;28;20116;-39
2022/01/01 00:14:10;;;;;;;68.82;29.17;;;2.90;91.70;;;;;;5056025;28;20132;-39
2022/01/01 00:16:36;;;;;;;67.90;30.33;;;2.90;91.80;;;;;;5056133;28;20052;-37
2022/01/01 00:19:02;;;;;;;76.15;31.50;;;2.90;91.80;;;;;;5055960;28;20025;-39
2022/01/01 00:21:27;;;;;;;72.70;28.13;;;3.00;91.80;;;;;;5056008;28;20029;-37
2022/01/01 00:23:53;;;;;;;62.53;25.88;;;2.90;91.80;;;;;;5056067;28;20052;-39
2022/01/01 00:26:19;;;;;;;74.38;30.20;;;2.90;91.80;;;;;;5054955;28;20405;-38
2022/01/01 00:28:44;;;;;;;65.75;26.90;;;3.00;91.80;;;;;;5055940;28;20078;-36
2022/01/01 00:31:10;;;;;;;64.40;26.35;;;3.00;91.90;;;;;;5055823;28;20025;-36
2022/01/01 00:33:36;;;;;;;63.58;25.52;;;3.00;91.80;;;;;;5055675;28;20037;-36
2022/01/01 00:36:02;;;;;;;58.95;25.20;;;3.00;91.80;;;;;;5055529;28;20096;-36
2022/01/01 00:38:27;;;;;;;55.35;24.05;;;3.00;91.80;;;;;;5055774;28;20025;-37
2022/01/01 00:40:53;;;;;;;63.47;25.52;;;3.00;91.80;;;;;;5055609;28;20029;-39
2022/01/01 00:43:19;;;;;;;59.92;25.33;;;3.10;91.80;;;;;;5055972;28;20349;-39
2022/01/01 00:45:44;;;;;;;56.78;22.90;;;3.00;91.70;;;;;;5055338;28;20433;-36
2022/01/01 00:48:10;;;;;;;53.55;23.27;;;3.00;91.80;;;;;;5055671;28;20147;-38
2022/01/01 00:50:35;;;;;;;55.03;22.13;;;3.10;91.80;;;;;;5055851;28;20029;-39
2022/01/01 00:53:02;;;;;;;59.05;24.48;;;3.10;91.80;;;;;;5055294;28;20329;-38
2022/01/01 00:55:28;;;;;;;47.22;22.20;;;3.10;91.80;;;;;;5055320;28;20052;-37
2022/01/01 00:57:53;;;;;;;50.05;20.65;;;3.10;91.80;;;;;;5055450;28;20021;-39
2022/01/01 01:00:19;;;;;;;41.42;19.95;;;3.10;91.90;;;;;;5056068;28;20063;-39
2022/01/01 01:02:46;;;;;;;42.60;19.98;;;3.10;91.90;;;;;;5057137;28;20110;-39
2022/01/01 01:05:12;;;;;;;44.20;19.88;;;3.10;91.90;;;;;;5059543;28;20037;-36
2022/01/01 01:07:37;;;;;;;42.50;19.52;;;3.10;91.90;;;;;;5059216;28;20033;-36
2022/01/01 01:10:05;;;;;;;42.13;18.42;;;3.10;92.00;;;;;;5058930;28;20060;-39
2022/01/01 01:12:41;;;;;;;40.17;19.13;;;3.10;92.00;;;;;;5059164;28;20040;-39
2022/01/01 01:15:10;;;;;;;42.72;18.73;;;3.10;92.10;;;;;;5059562;28;20104;-36
2022/01/01 01:17:36;;;;;;;36.95;18.63;;;3.10;92.10;;;;;;5059439;28;20401;-36
2022/01/01 01:20:03;;;;;;;41.65;18.27;;;3.10;92.20;;;;;;5059483;28;20021;-38
2022/01/01 01:22:29;;;;;;;39.60;17.90;;;3.10;92.20;;;;;;5059078;28;20041;-38
2022/01/01 01:24:55;;;;;;;37.45;18.30;;;3.10;92.40;;;;;;5059317;28;20120;-36
2022/01/01 01:27:20;;;;;;;38.10;17.98;;;3.10;92.20;;;;;;5058906;28;20037;-39
2022/01/01 01:29:46;;;;;;;38.33;16.15;;;3.10;92.20;;;;;;5058899;28;20025;-36
2022/01/01 01:32:12;;;;;;;32.80;16.25;;;3.10;92.20;;;;;;5059214;28;20040;-38
2022/01/01 01:34:38;;;;;;;33.25;17.10;;;3.10;92.20;;;;;;5059183;28;20025;-39
2022/01/01 01:37:03;;;;;;;38.83;17.80;;;3.10;92.20;;;;;;5058999;28;20433;-40
2022/01/01 01:39:29;;;;;;;37.75;17.48;;;3.20;92.30;;;;;;5058967;28;20393;-36
2022/01/01 01:41:55;;;;;;;41.20;16.95;;;3.20;92.30;;;;;;5058603;28;20033;-38
2022/01/01 01:44:26;;;;;;;34.95;16.85;;;3.20;92.30;;;;;;5059010;28;20104;-37
2022/01/01 01:46:52;;;;;;;35.30;15.88;;;3.20;92.30;;;;;;5058732;28;20037;-38
2022/01/01 01:49:18;;;;;;;30.02;14.75;;;3.20;92.30;;;;;;5058740;28;20467;-39
2022/01/01 01:51:44;;;;;;;34.63;16.58;;;3.20;92.30;;;;;;5058480;28;20041;-39
2022/01/01 01:54:10;;;;;;;33.72;17.00;;;3.30;92.30;;;;;;5058792;28;20108;-38
2022/01/01 01:56:38;;;;;;;34.45;17.02;;;3.30;92.30;;;;;;5058086;28;20045;-36
2022/01/01 01:59:04;;;;;;;29.75;15.38;;;3.30;92.30;;;;;;5058685;28;20029;-40
2022/01/01 02:01:30;;;;;;;30.60;14.90;;;3.30;92.20;;;;;;5058281;28;20025;-36
2022/01/01 02:03:57;;;;;;;33.72;16.23;;;3.30;92.30;;;;;;5058208;28;20108;-39
2022/01/01 02:06:24;;;;;;;31.88;15.25;;;3.30;92.30;;;;;;5058171;28;20037;-38
2022/01/01 02:08:52;;;;;;;35.05;16.58;;;3.30;92.30;;;;;;5058375;28;20025;-36
2022/01/01 02:11:23;;;;;;;33.90;16.42;;;3.40;92.40;;;;;;5058310;28;20036;-36
2022/01/01 02:18:44;;;;;;;33.00;16.38;;;3.40;92.40;;;;;;5058272;28;20425;-36
2022/01/01 02:21:11;;;;;;;29.50;15.13;;;3.40;92.40;;;;;;5058173;28;20398;-38
2022/01/01 02:23:41;;;;;;;29.20;14.80;;;3.40;92.40;;;;;;5058137;28;20033;-39
2022/01/01 02:26:11;;;;;;;24.75;14.23;;;3.40;92.40;;;;;;5058333;28;20073;-37
2022/01/01 02:28:39;;;;;;;27.07;14.33;;;3.40;92.40;;;;;;5058158;28;20099;-36
2022/01/01 02:31:05;;;;;;;32.35;14.98;;;3.50;92.40;;;;;;5057991;28;20616;-36
2022/01/01 02:33:32;;;;;;;24.67;13.57;;;3.50;92.40;;;;;;5057984;28;20112;-36
2022/01/01 02:35:58;;;;;;;28.05;14.48;;;3.50;92.50;;;;;;5057832;28;20033;-37
2022/01/01 02:38:24;;;;;;;24.75;13.57;;;3.50;92.60;;;;;;5057813;28;20051;-36
2022/01/01 02:40:49;;;;;;;27.95;14.35;;;3.60;92.60;;;;;;5057372;28;20031;-36
2022/01/01 02:43:17;;;;;;;27.60;13.45;;;3.60;92.60;;;;;;5057698;28;20047;-37
2022/01/01 02:45:43;;;;;;;28.55;14.00;;;3.60;92.50;;;;;;5057690;28;20032;-39
2022/01/01 02:48:08;;;;;;;21.85;11.50;;;3.60;92.50;;;;;;5057690;28;20350;-36
2022/01/01 02:50:34;;;;;;;24.38;12.90;;;3.70;92.40;;;;;;5057551;28;20428;-38
2022/01/01 02:53:00;;;;;;;25.75;12.40;;;3.70;92.30;;;;;;5057214;28;20040;-37
2022/01/01 02:55:25;;;;;;;23.67;12.80;;;3.70;92.20;;;;;;5057219;28;20049;-36
2022/01/01 02:57:51;;;;;;;25.98;12.68;;;3.70;92.20;;;;;;5057297;28;20029;-36
2022/01/01 03:00:17;;;;;;;26.55;13.40;;;3.80;92.30;;;;;;5057674;28;20033;-39
2022/01/01 03:02:45;;;;;;;29.00;13.20;;;3.70;92.30;;;;;;5057225;28;20301;-38
2022/01/01 03:05:10;;;;;;;26.23;14.07;;;3.80;92.60;;;;;;5056963;28;20037;-36
2022/01/01 03:07:36;;;;;;;26.48;13.27;;;3.80;92.40;;;;;;5057136;28;20439;-38
2022/01/01 03:10:03;;;;;;;27.58;12.95;;;3.80;92.40;;;;;;5057255;28;20044;-37
2022/01/01 03:12:28;;;;;;;22.88;12.10;;;3.80;92.40;;;;;;5056935;28;20083;-38
2022/01/01 03:14:54;;;;;;;22.30;12.38;;;3.90;92.40;;;;;;5056802;28;20037;-38
2022/01/01 03:17:20;;;;;;;22.60;13.00;;;3.90;92.50;;;;;;5056175;28;20417;-37
2022/01/01 03:19:45;;;;;;;28.35;13.75;;;3.90;92.50;;;;;;5057305;28;20021;-38
2022/01/01 03:22:11;;;;;;;26.40;13.00;;;4.00;92.60;;;;;;5056789;28;20078;-38
2022/01/01 03:24:36;;;;;;;27.90;13.05;;;4.00;92.70;;;;;;5057147;28;20029;-37
2022/01/01 03:27:03;;;;;;;22.92;12.63;;;4.00;92.70;;;;;;5056772;28;20309;-39
2022/01/01 03:29:30;;;;;;;21.05;11.60;;;4.00;92.70;;;;;;5057030;28;20029;-39
2022/01/01 03:31:57;;;;;;;22.90;12.73;;;4.10;92.70;;;;;;5056655;28;20032;-37
2022/01/01 03:34:22;;;;;;;20.88;12.07;;;4.10;92.80;;;;;;5056880;28;20033;-37
2022/01/01 03:36:48;;;;;;;23.13;12.25;;;4.10;92.80;;;;;;5056692;28;20440;-37
2022/01/01 03:39:14;;;;;;;19.05;10.50;;;4.20;92.90;;;;;;5056914;28;20032;-39
2022/01/01 03:41:39;;;;;;;19.00;9.65;;;4.20;92.80;;;;;;5056422;28;20490;-39
2022/01/01 03:44:05;;;;;;;25.85;11.90;;;4.20;92.70;;;;;;5056272;28;20028;-37
2022/01/01 03:46:31;;;;;;;19.38;11.75;;;4.20;92.80;;;;;;5056574;28;20029;-36
2022/01/01 03:48:57;;;;;;;14.38;8.60;;;4.30;93.00;;;;;;5056518;28;20037;-39
2022/01/01 03:51:22;;;;;;;22.05;11.45;;;4.30;93.00;;;;;;5056369;28;20065;-36
2022/01/01 03:53:48;;;;;;;14.35;7.88;;;4.40;93.10;;;;;;5056320;28;20112;-39
2022/01/01 03:56:14;;;;;;;13.15;8.60;;;4.40;93.20;;;;;;5055983;28;20107;-36
2022/01/01 03:58:41;;;;;;;16.65;9.98;;;4.50;93.60;;;;;;5056290;28;20112;-38
2022/01/01 04:01:06;;;;;;;14.95;8.13;;;4.50;93.80;;;;;;5056126;28;20025;-38
2022/01/01 04:03:32;;;;;;;13.45;8.05;;;4.60;94.00;;;;;;5056315;28;20082;-39
2022/01/01 04:05:58;;;;;;;12.88;8.00;;;4.70;94.10;;;;;;5056307;28;20082;-37
2022/01/01 04:08:24;;;;;;;13.80;7.95;;;4.80;94.30;;;;;;5056052;28;20059;-39
2022/01/01 04:10:49;;;;;;;12.23;7.30;;;4.90;94.50;;;;;;5056147;28;20036;-39
2022/01/01 04:13:15;;;;;;;15.45;8.60;;;4.90;94.60;;;;;;5055788;28;20124;-37
2022/01/01 04:15:42;;;;;;;12.85;7.65;;;5.00;94.60;;;;;;5055985;28;20108;-40
2022/01/01 04:18:13;;;;;;;14.82;7.22;;;5.10;94.60;;;;;;5055962;28;20116;-40
2022/01/01 04:20:44;;;;;;;14.48;8.70;;;5.20;94.60;;;;;;5055886;28;20025;-37
2022/01/01 04:23:10;;;;;;;16.40;8.77;;;5.30;94.50;;;;;;5056021;28;20017;-38
2022/01/01 04:25:38;;;;;;;17.20;8.82;;;5.30;94.50;;;;;;5056249;28;20037;-39
2022/01/01 04:28:04;;;;;;;14.27;7.78;;;5.40;94.60;;;;;;5055991;28;20051;-38
2022/01/01 04:30:30;;;;;;;13.82;8.32;;;5.50;94.50;;;;;;5055788;28;20029;-39
2022/01/01 04:32:56;;;;;;;14.40;8.88;;;5.50;94.40;;;;;;5055486;28;20028;-39
2022/01/01 04:35:22;;;;;;;16.02;7.55;;;5.60;94.40;;;;;;5055614;28;20075;-37
2022/01/01 04:37:48;;;;;;;12.75;7.28;;;5.60;94.30;;;;;;5057370;28;20036;-39
2022/01/01 04:40:14;;;;;;;17.02;9.43;;;5.70;94.20;;;;;;5060174;28;20025;-40
2022/01/01 04:42:40;;;;;;;14.50;7.57;;;5.70;94.20;;;;;;5060176;28;20333;-39
2022/01/01 04:45:06;;;;;;;14.50;8.20;;;5.80;94.10;;;;;;5060118;28;20033;-37
2022/01/01 04:47:32;;;;;;;11.65;7.72;;;5.80;94.00;;;;;;5059735;28;20036;-39
2022/01/01 04:49:57;;;;;;;16.77;9.77;;;5.80;94.00;;;;;;5060013;28;20089;-39
2022/01/01 04:52:23;;;;;;;15.00;8.98;;;5.90;94.10;;;;;;5059927;28;20298;-39
2022/01/01 04:54:49;;;;;;;15.15;8.77;;;5.90;94.30;;;;;;5059634;28;20031;-40
2022/01/01 04:57:15;;;;;;;15.13;8.82;;;5.90;94.20;;;;;;5059936;28;20029;-39
2022/01/01 04:59:41;;;;;;;14.90;9.02;;;6.00;94.30;;;;;;5059940;28;20071;-38
2022/01/01 05:02:07;;;;;;;16.98;9.82;;;6.00;94.40;;;;;;5059372;28;20086;-37
2022/01/01 05:04:35;;;;;;;14.95;8.82;;;6.00;94.40;;;;;;5059652;28;20029;-39
2022/01/01 05:07:01;;;;;;;15.50;9.63;;;6.10;94.40;;;;;;5059494;28;20041;-37
2022/01/01 05:09:28;;;;;;;17.45;10.20;;;6.10;94.40;;;;;;5059563;28;20346;-37
2022/01/01 05:11:54;;;;;;;17.45;11.25;;;6.20;94.50;;;;;;5059556;28;20413;-39
2022/01/01 05:14:20;;;;;;;16.90;10.25;;;6.20;94.50;;;;;;5059516;28;20088;-38
2022/01/01 05:16:46;;;;;;;16.50;9.85;;;6.20;94.40;;;;;;5059474;28;20404;-39
2022/01/01 05:19:11;;;;;;;15.73;9.63;;;6.20;94.60;;;;;;5059393;28;20425;-38
2022/01/01 05:21:37;;;;;;;19.75;11.65;;;6.30;94.60;;;;;;5059467;28;20025;-38
2022/01/01 05:24:05;;;;;;;17.77;10.70;;;6.40;94.70;;;;;;5059440;28;20413;-37
2022/01/01 05:26:31;;;;;;;19.02;11.52;;;6.40;94.70;;;;;;5059239;28;20075;-37
2022/01/01 05:28:57;;;;;;;20.95;11.63;;;6.40;94.60;;;;;;5059176;28;20037;-38
2022/01/01 05:31:22;;;;;;;20.38;11.05;;;6.50;94.60;;;;;;5058897;28;20033;-39
2022/01/01 05:33:49;;;;;;;17.85;11.20;;;6.50;94.50;;;;;;5058976;28;20035;-39
2022/01/01 05:36:15;;;;;;;24.02;12.98;;;6.50;94.60;;;;;;5058804;28;20025;-37
2022/01/01 05:38:42;;;;;;;23.25;12.75;;;6.50;94.80;;;;;;5058977;28;20029;-37
2022/01/01 05:41:07;;;;;;;26.52;12.80;;;6.60;94.80;;;;;;5058640;28;20036;-39
2022/01/01 05:43:33;;;;;;;25.05;12.80;;;6.60;94.80;;;;;;5059020;28;20171;-37
2022/01/01 05:45:59;;;;;;;19.35;11.80;;;6.70;94.70;;;;;;5058729;28;20034;-37
2022/01/01 05:48:24;;;;;;;23.85;13.93;;;6.70;94.60;;;;;;5058469;28;20029;-39
2022/01/01 05:50:50;;;;;;;24.02;13.27;;;6.70;94.50;;;;;;5058501;28;20036;-37
2022/01/01 05:53:17;;;;;;;24.52;13.32;;;6.80;94.50;;;;;;5058592;28;20036;-37
2022/01/01 05:55:43;;;;;;;27.02;13.82;;;6.80;94.70;;;;;;5058301;28;20049;-37
2022/01/01 05:58:08;;;;;;;25.70;13.52;;;6.80;94.60;;;;;;5058392;28;20017;-37
2022/01/01 06:00:35;;;;;;;24.77;14.63;;;6.80;94.70;;;;;;5058323;28;20409;-38
2022/01/01 06:03:01;;;;;;;25.38;14.52;;;6.90;94.70;;;;;;5058158;28;20032;-38
2022/01/01 06:05:28;;;;;;;24.00;14.35;;;6.90;94.70;;;;;;5058590;28;20047;-37
2022/01/01 06:07:55;;;;;;;29.15;15.07;;;6.90;94.80;;;;;;5058091;28;20336;-37
2022/01/01 06:10:21;;;;;;;27.25;15.60;;;7.00;94.70;;;;;;5058099;28;20029;-37
2022/01/01 06:12:47;;;;;;;30.77;15.75;;;7.00;94.80;;;;;;5058325;28;20082;-37
2022/01/01 06:15:13;;;;;;;31.48;15.57;;;7.00;94.70;;;;;;5058490;28;20029;-37
2022/01/01 06:17:39;;;;;;;34.60;15.63;;;7.10;94.70;;;;;;5058001;28;20415;-38
2022/01/01 06:20:05;;;;;;;30.25;15.48;;;7.10;94.70;;;;;;5057820;28;20024;-39
2022/01/01 06:22:31;;;;;;;32.67;16.55;;;7.10;94.60;;;;;;5057958;28;20029;-40
2022/01/01 06:24:56;;;;;;;26.65;15.27;;;7.10;94.70;;;;;;5058214;28;20028;-40
2022/01/01 06:27:22;;;;;;;33.60;16.05;;;7.20;94.70;;;;;;5057847;28;20037;-40
2022/01/01 06:29:48;;;;;;;30.00;16.23;;;7.20;94.70;;;;;;5058107;28;20025;-39
2022/01/01 06:32:14;;;;;;;28.35;16.50;;;7.20;94.60;;;;;;5057663;28;20086;-38
2022/01/01 06:34:39;;;;;;;30.17;15.60;;;7.20;94.70;;;;;;5057893;28;20033;-40
2022/01/01 06:37:05;;;;;;;29.70;15.52;;;7.30;94.80;;;;;;5057840;28;20040;-37
2022/01/01 06:39:31;;;;;;;34.17;15.88;;;7.30;94.60;;;;;;5057918;28;20037;-38
2022/01/01 06:41:56;;;;;;;33.95;16.85;;;7.30;94.70;;;;;;5057445;28;20033;-38
2022/01/01 06:44:22;;;;;;;26.50;15.88;;;7.30;94.70;;;;;;5057322;28;20124;-37
2022/01/01 06:46:47;;;;;;;29.42;15.85;;;7.40;94.70;;;;;;5057396;28;20029;-39
2022/01/01 06:49:14;;;;;;;29.88;16.10;;;7.40;94.70;;;;;;5057623;28;20124;-37
2022/01/01 06:51:40;;;;;;;32.72;16.85;;;7.40;94.60;;;;;;5057421;28;20037;-37
2022/01/01 06:54:05;;;;;;;29.45;16.98;;;7.40;94.70;;;;;;5057440;28;20043;-37
2022/01/01 06:56:31;;;;;;;30.33;16.30;;;7.40;94.60;;;;;;5056650;28;20124;-37
2022/01/01 06:58:57;;;;;;;31.85;16.50;;;7.50;94.70;;;;;;5057282;28;20036;-37
2022/01/01 07:01:23;;;;;;;33.70;16.48;;;7.50;94.70;;;;;;5056903;28;20321;-39
2022/01/01 07:03:48;;;;;;;34.17;16.77;;;7.50;94.60;;;;;;5057427;28;20041;-39
2022/01/01 07:06:14;;;;;;;32.60;17.77;;;7.50;94.60;;;;;;5057272;28;20048;-38
2022/01/01 07:08:39;;;;;;;32.40;17.48;;;7.50;94.50;;;;;;5057425;28;20436;-39
2022/01/01 07:11:06;;;;;;;31.95;17.15;;;7.50;94.60;;;;;;5056823;28;20037;-37
2022/01/01 07:13:31;;;;;;;33.00;16.58;;;7.50;94.50;;;;;;5057059;28;20106;-39
2022/01/01 07:15:57;;;;;;;31.35;17.77;;;7.60;94.50;;;;;;5056537;28;20352;-37
2022/01/01 07:18:23;;;;;;;30.55;17.33;;;7.60;94.50;;;;;;5056776;28;20064;-38
2022/01/01 07:20:48;;;;;;;36.85;17.65;;;7.60;94.50;;;;;;5056847;28;20025;-38
2022/01/01 07:23:14;;;;;;;33.47;17.25;;;7.60;94.40;;;;;;5056621;28;20446;-40
2022/01/01 07:25:40;;;;;;;32.40;17.55;;;7.60;94.30;;;;;;5056831;28;20282;-40
2022/01/01 07:28:05;;;;;;;31.23;17.48;;;7.60;94.20;;;;;;5056756;28;20025;-39
2022/01/01 07:30:31;;;;;;;31.38;17.67;;;7.60;94.20;;;;;;5056661;28;20033;-38
2022/01/01 07:32:57;;;;;;;32.20;17.13;;;7.60;94.20;;;;;;5056171;28;20044;-40
2022/01/01 07:35:22;;;;;;;28.52;15.60;;;7.70;94.20;;;;;;5056679;28;20259;-37
2022/01/01 07:37:49;;;;;;;30.65;15.95;;;7.60;94.20;;;;;;5056353;28;20025;-39
2022/01/01 07:40:16;;;;;;;28.10;16.58;;;7.60;94.20;;;;;;5055445;28;20112;-39
2022/01/01 07:42:43;;;;;;;30.30;15.68;;;7.60;94.10;;;;;;5056744;28;20063;-37
2022/01/01 07:45:10;;;;;;;30.70;17.73;;;7.60;94.10;;;;;;5056659;28;20032;-40
2022/01/01 07:47:37;;;;;;;32.40;17.73;;;7.60;94.10;;;;;;5056425;28;20131;-39
2022/01/01 07:50:05;;;;;;;29.23;16.25;;;7.60;94.10;;;;;;5056096;28;20321;-37
2022/01/01 07:52:30;;;;;;;32.55;17.38;;;7.60;94.00;;;;;;5056425;28;20496;-37
2022/01/01 07:54:56;;;;;;;29.67;17.50;;;7.70;94.00;;;;;;5056254;28;20104;-37
2022/01/01 07:57:21;;;;;;;32.40;18.65;;;7.70;94.00;;;;;;5056406;28;20033;-37
2022/01/01 07:59:47;;;;;;;28.02;16.00;;;7.70;94.00;;;;;;5056585;28;20044;-39
2022/01/01 08:02:13;;;;;;;29.23;15.80;;;7.70;94.20;;;;;;5056008;28;20029;-39
2022/01/01 08:04:38;;;;;;;28.92;17.67;;;7.70;93.90;;;;;;5056028;28;20033;-37
2022/01/01 08:07:04;;;;;;;29.48;17.15;;;7.70;94.00;;;;;;5056045;28;20029;-37
2022/01/01 08:09:30;;;;;;;32.28;16.83;;;7.70;94.00;;;;;;5056419;28;20106;-37
2022/01/01 08:11:55;;;;;;;27.42;16.83;;;7.70;93.90;;;;;;5055169;28;20345;-38
2022/01/01 08:14:22;;;;;;;28.23;16.05;;;7.70;93.90;;;;;;5056127;28;20037;-40
2022/01/01 08:16:58;;;;;;;27.70;16.20;;;7.70;93.90;;;;;;5055938;28;20418;-39
2022/01/01 08:19:25;;;;;;;26.88;16.67;;;7.70;93.80;;;;;;5055949;28;20114;-38
2022/01/01 08:21:50;;;;;;;28.65;16.85;;;7.70;93.80;;;;;;5055708;28;20039;-39
2022/01/01 08:24:16;;;;;;;29.33;16.33;;;7.70;93.80;;;;;;5056073;28;20033;-40
2022/01/01 08:26:42;;;;;;;31.80;19.23;;;7.80;93.80;;;;;;5056051;28;20037;-39
2022/01/01 08:29:07;;;;;;;27.27;16.98;;;7.80;93.70;;;;;;5056114;28;20037;-37
2022/01/01 08:31:33;;;;;;;26.10;15.63;;;7.80;93.60;;;;;;5055627;28;20033;-37
2022/01/01 08:33:58;;;;;;;25.83;15.48;;;7.80;93.60;;;;;;5055946;28;20124;-37
2022/01/01 08:36:24;;;;;;;24.55;14.95;;;7.80;93.60;;;;;;5055937;28;20047;-37
2022/01/01 08:38:50;;;;;;;25.70;15.13;;;7.80;93.60;;;;;;5055972;28;20048;-37
2022/01/01 08:41:16;;;;;;;21.88;13.35;;;7.80;93.50;;;;;;5055478;28;20030;-38
2022/01/01 08:43:41;;;;;;;22.48;13.95;;;7.80;93.40;;;;;;5055863;28;20029;-38
2022/01/01 08:46:07;;;;;;;23.05;14.68;;;7.80;93.30;;;;;;5055635;28;20430;-39
2022/01/01 08:48:33;;;;;;;25.40;14.75;;;7.80;93.30;;;;;;5056029;28;20116;-40
2022/01/01 08:50:59;;;;;;;26.15;15.32;;;7.80;93.20;;;;;;5055469;28;20049;-37
2022/01/01 08:53:25;;;;;;;18.15;11.48;;;7.90;93.10;;;;;;5055488;28;20048;-37
2022/01/01 08:55:52;;;;;;;21.70;11.15;;;7.90;93.10;;;;;;5055224;28;20187;-37
2022/01/01 08:58:17;;;;;;;21.23;12.32;;;7.90;93.00;;;;;;5055597;28;20025;-38
2022/01/01 09:00:43;;;;;;;24.90;12.70;;;7.90;93.00;;;;;;5055418;28;20038;-38
2022/01/01 09:03:09;;;;;;;18.40;12.38;;;7.90;92.80;;;;;;5055244;28;20043;-40
2022/01/01 09:05:34;;;;;;;23.48;12.32;;;8.00;92.60;;;;;;5055592;28;20049;-40
2022/01/01 09:08:00;;;;;;;23.23;13.68;;;7.90;92.40;;;;;;5055600;28;20108;-38
2022/01/01 09:10:26;;;;;;;19.67;12.75;;;7.90;92.40;;;;;;5055657;28;20036;-39
2022/01/01 09:12:51;;;;;;;21.35;12.13;;;7.90;92.30;;;;;;5055104;28;20413;-39
2022/01/01 09:15:17;;;;;;;16.70;10.70;;;7.80;92.20;;;;;;5055142;28;20044;-38
2022/01/01 09:17:43;;;;;;;20.77;11.00;;;7.80;92.30;;;;;;5055374;28;20021;-40
2022/01/01 09:20:08;;;;;;;15.40;10.02;;;7.80;92.20;;;;;;5055516;28;20041;-39
2022/01/01 09:22:34;;;;;;;14.25;8.77;;;7.80;92.20;;;;;;5055079;28;20108;-39
2022/01/01 09:25:00;;;;;;;13.57;8.52;;;7.80;92.20;;;;;;5058747;28;20037;-40
2022/01/01 09:27:25;;;;;;;15.60;9.20;;;7.70;92.20;;;;;;5058618;28;20120;-37
2022/01/01 09:29:51;;;;;;;13.13;7.88;;;7.70;92.10;;;;;;5059004;28;20063;-39
2022/01/01 09:32:18;;;;;;;9.48;6.72;;;7.70;92.10;;;;;;5058852;28;20112;-38
2022/01/01 09:34:44;;;;;;;10.55;7.15;;;7.70;92.00;;;;;;5058973;28;20074;-39
2022/01/01 09:37:09;;;;;;;8.63;6.40;;;7.70;92.00;;;;;;5058834;28;20100;-39
2022/01/01 09:39:35;;;;;;;12.45;6.13;;;7.60;92.00;;;;;;5058749;28;20396;-38
2022/01/01 09:42:02;;;;;;;9.23;5.47;;;7.60;92.00;;;;;;5058879;28;20445;-38
2022/01/01 09:44:29;;;;;;;12.10;6.63;;;7.60;91.90;;;;;;5058872;28;20090;-40
2022/01/01 09:46:54;;;;;;;10.95;7.15;;;7.60;91.80;;;;;;5058837;28;20056;-37
2022/01/01 09:49:20;;;;;;;10.35;5.80;;;7.60;91.70;;;;;;5058797;28;20063;-37
2022/01/01 09:51:47;;;;;;;11.27;6.18;;;7.50;91.70;;;;;;5058519;28;20342;-39
2022/01/01 09:54:12;;;;;;;9.10;6.30;;;7.50;91.70;;;;;;5058581;28;20095;-39
2022/01/01 09:56:38;;;;;;;8.13;5.55;;;7.50;91.80;;;;;;5058038;28;20045;-37
2022/01/01 09:59:04;;;;;;;10.25;6.00;;;7.50;91.80;;;;;;5058432;28;20033;-37
2022/01/01 10:01:30;;;;;;;12.60;6.75;;;7.50;91.80;;;;;;5058097;28;20025;-37
2022/01/01 10:03:59;;;;;;;11.75;6.53;;;7.40;91.80;;;;;;5057943;28;20029;-34
2022/01/01 10:06:29;;;;;;;10.90;6.57;;;7.40;91.90;;;;;;5058211;28;20111;-36
2022/01/01 10:08:59;;;;;;;13.05;7.38;;;7.50;92.00;;;;;;5058295;28;20104;-35
2022/01/01 10:11:27;;;;;;;9.30;5.78;;;7.50;92.00;;;;;;5058040;28;20037;-34
2022/01/01 10:13:53;;;;;;;7.82;5.47;;;7.50;92.00;;;;;;5057729;28;20037;-35
2022/01/01 10:16:19;;;;;;;7.72;5.03;;;7.50;92.00;;;;;;5058035;28;20025;-37
2022/01/01 10:18:48;;;;;;;9.70;5.53;;;7.50;91.90;;;;;;5058092;28;20029;-34
2022/01/01 10:21:19;;;;;;;7.47;5.03;;;7.50;91.90;;;;;;5058124;28;20158;-37
2022/01/01 10:23:49;;;;;;;6.88;4.55;;;7.60;91.90;;;;;;5057778;28;20449;-34
2022/01/01 10:29:31;;;;;;;11.07;4.80;;;7.50;91.70;;;;;;5055689;28;20029;-37
2022/01/01 10:32:01;;;;;;;10.13;5.30;;;7.50;91.70;;;;;;5055452;28;20064;-37
2022/01/01 10:34:29;;;;;;;10.87;4.60;;;7.50;91.70;;;;;;5056078;28;20048;-37
2022/01/01 10:36:55;;;;;;;7.63;4.35;;;7.60;91.70;;;;;;5057572;28;20355;-37
2022/01/01 10:39:21;;;;;;;6.85;4.00;;;7.50;91.70;;;;;;5057851;28;20021;-40
2022/01/01 10:41:59;;;;;;;8.02;5.03;;;7.50;91.60;;;;;;5056728;28;20183;-40
2022/01/01 10:44:40;;;;;;;10.65;4.05;;;7.60;91.50;;;;;;5057735;28;20309;-37
2022/01/01 10:47:16;;;;;;;7.07;3.70;;;7.60;91.60;;;;;;5057559;28;20386;-37
2022/01/01 10:52:28;;;;;;;7.47;3.95;;;7.60;91.60;;;;;;5057526;28;20036;-38
2022/01/01 10:55:00;;;;;;;7.50;3.38;;;7.60;91.50;;;;;;5057313;28;20021;-38
2022/01/01 10:57:34;;;;;;;8.38;3.30;;;7.60;91.40;;;;;;5057465;28;20029;-37
2022/01/01 11:00:24;;;;;;;4.93;3.10;;;7.60;91.30;;;;;;5057490;28;20290;-37
2022/01/01 11:02:59;;;;;;;5.32;3.25;;;7.60;91.20;;;;;;5056536;28;20081;-39
2022/01/01 11:05:29;;;;;;;3.83;3.15;;;7.50;91.20;;;;;;5057335;28;20051;-37
2022/01/01 11:07:55;;;;;;;7.22;4.00;;;7.50;91.20;;;;;;5057088;28;20074;-36
2022/01/01 11:10:22;;;;;;;6.55;3.53;;;7.50;91.20;;;;;;5057113;28;20033;-39
2022/01/01 11:12:48;;;;;;;5.78;3.60;;;7.50;91.60;;;;;;5056808;28;20052;-40
2022/01/01 11:15:14;;;;;;;3.80;3.05;;;7.50;91.30;;;;;;5057420;28;20032;-40
2022/01/01 11:17:42;;;;;;;7.95;3.78;;;7.50;91.30;;;;;;5057077;28;20295;-37
2022/01/01 11:20:09;;;;;;;11.23;4.03;;;7.50;91.30;;;;;;5057054;28;20029;-40
2022/01/01 11:22:34;;;;;;;7.65;4.40;;;7.50;91.40;;;;;;5056770;28;20025;-39
2022/01/01 11:25:01;;;;;;;9.32;4.57;;;7.50;91.40;;;;;;5056957;28;20040;-39
2022/01/01 11:27:27;;;;;;;7.65;4.85;;;7.50;91.40;;;;;;5057010;28;20036;-40
2022/01/01 11:29:54;;;;;;;7.63;4.28;;;7.50;91.40;;;;;;5056930;28;20025;-40
2022/01/01 11:32:44;;;;;;;11.40;5.85;;;7.50;91.50;;;;;;5056418;28;20057;-38
2022/01/01 11:35:17;;;;;;;7.05;4.45;;;7.50;91.40;;;;;;5056259;28;20337;-40
2022/01/01 11:38:10;;;;;;;8.32;5.05;;;7.50;91.40;;;;;;5056444;28;20069;-40
2022/01/01 11:41:02;;;;;;;11.48;6.82;;;7.50;91.30;;;;;;5055857;28;20037;-37
2022/01/01 11:43:53;;;;;;;7.13;4.97;;;7.50;91.40;;;;;;5056740;28;20029;-39
2022/01/01 11:46:29;;;;;;;12.93;10.02;;;7.50;91.50;;;;;;5056361;28;20042;-38
2022/01/01 11:48:57;;;;;;;12.40;6.57;;;7.50;91.60;;;;;;5056682;28;20417;-39
2022/01/01 11:51:34;;;;;;;14.68;7.80;;;7.50;91.70;;;;;;5056452;28;20116;-38
2022/01/01 11:54:11;;;;;;;13.18;8.30;;;7.50;91.70;;;;;;5056227;28;20158;-37
2022/01/01 11:56:51;;;;;;;17.45;8.00;;;7.50;91.70;;;;;;5056041;28;20049;-38
2022/01/01 11:59:24;;;;;;;11.48;7.72;;;7.50;91.70;;;;;;5056252;28;20044;-40
2022/01/01 12:01:59;;;;;;;15.98;10.25;;;7.50;91.80;;;;;;5056312;28;20129;-38
2022/01/01 12:04:41;;;;;;;17.52;10.98;;;7.50;92.00;;;;;;5056410;28;20033;-38
2022/01/01 12:07:28;;;;;;;19.60;11.88;;;7.50;91.70;;;;;;5055918;28;20037;-37
2022/01/01 12:12:50;;;;;;;15.55;10.05;;;7.50;91.60;;;;;;5055965;28;20086;-40
2022/01/01 12:15:26;;;;;;;13.70;8.77;;;7.40;91.50;;;;;;5055471;28;20111;-39
2022/01/01 12:18:07;;;;;;;14.65;9.43;;;7.40;91.60;;;;;;5055672;28;20029;-40
2022/01/01 12:21:02;;;;;;;13.27;8.15;;;7.40;91.60;;;;;;5055715;28;20056;-39
2022/01/01 12:23:37;;;;;;;13.13;8.07;;;7.40;91.60;;;;;;5055469;28;20068;-40
2022/01/01 12:26:11;;;;;;;12.02;7.68;;;7.30;91.70;;;;;;5055644;28;20025;-37
2022/01/01 12:28:38;;;;;;;12.23;7.72;;;7.30;91.60;;;;;;5055700;28;20227;-37
2022/01/01 12:31:10;;;;;;;11.63;7.50;;;7.30;91.70;;;;;;5055141;28;20041;-40
2022/01/01 12:33:39;;;;;;;12.40;6.85;;;7.30;91.70;;;;;;5055613;28;20055;-40
2022/01/01 12:36:25;;;;;;;10.70;6.97;;;7.30;91.70;;;;;;5055582;28;20036;-39
2022/01/01 12:38:53;;;;;;;9.95;5.93;;;7.30;91.70;;;;;;5055686;28;20116;-37
2022/01/01 12:41:30;;;;;;;11.55;8.07;;;7.20;91.70;;;;;;5055856;28;20082;-39
2022/01/01 12:44:01;;;;;;;9.48;5.70;;;7.20;91.60;;;;;;5055508;28;20031;-39
2022/01/01 12:46:29;;;;;;;8.05;5.25;;;7.20;91.70;;;;;;5055529;28;20390;-36
2022/01/01 12:48:57;;;;;;;10.63;5.65;;;7.20;91.70;;;;;;5055782;28;20325;-39
2022/01/01 12:51:25;;;;;;;10.35;5.43;;;7.20;91.70;;;;;;5055495;28;20061;-37
2022/01/01 12:53:58;;;;;;;8.70;5.03;;;7.20;91.70;;;;;;5055662;28;20358;-40
2022/01/01 12:56:26;;;;;;;6.53;4.45;;;7.20;91.60;;;;;;5055199;28;20068;-40